createdAt,value
2022-10-31T00:00:48.877Z,8.55
2022-10-31T00:03:16.783Z,6.60
2022-10-31T00:05:44.612Z,6.00
2022-10-31T00:08:11.262Z,6.43
2022-10-31T00:10:41.924Z,7.78
2022-10-31T00:13:09.814Z,6.22
2022-10-31T00:15:37.821Z,7.18
2022-10-31T00:18:05.810Z,6.43
2022-10-31T00:20:32.558Z,5.32
2022-10-31T00:23:02.993Z,7.20
2022-10-31T00:25:33.810Z,4.78
2022-10-31T00:28:00.626Z,11.23
2022-10-31T00:30:27.488Z,7.80
2022-10-31T00:32:54.008Z,8.85
2022-10-31T00:35:20.571Z,7.22
2022-10-31T00:37:47.140Z,8.85
2022-10-31T00:40:13.865Z,8.35
2022-10-31T00:42:41.517Z,7.25
2022-10-31T00:45:11.643Z,6.30
2022-10-31T00:47:38.702Z,5.55
2022-10-31T00:50:06.729Z,8.88
2022-10-31T00:52:33.226Z,6.95
2022-10-31T00:54:59.990Z,6.22
2022-10-31T00:57:26.797Z,7.95
2022-10-31T00:59:53.430Z,7.35
2022-10-31T01:05:10.982Z,7.65
2022-10-31T01:07:39.500Z,11.80
2022-10-31T01:10:10.446Z,7.00
2022-10-31T01:12:42.126Z,6.82
2022-10-31T01:15:10.135Z,7.25
2022-10-31T01:17:36.665Z,5.65
2022-10-31T01:20:04.935Z,5.28
2022-10-31T01:22:31.884Z,5.35
2022-10-31T01:25:01.130Z,5.15
2022-10-31T01:27:28.115Z,9.68
2022-10-31T01:29:54.726Z,8.27
2022-10-31T01:32:21.238Z,7.07
2022-10-31T01:34:48.029Z,8.05
2022-10-31T01:37:14.607Z,4.20
2022-10-31T01:39:41.230Z,4.60
2022-10-31T01:42:07.900Z,7.13
2022-10-31T01:44:34.456Z,6.15
2022-10-31T01:47:08.438Z,6.32
2022-10-31T01:49:40.901Z,9.65
2022-10-31T01:52:13.515Z,6.55
2022-10-31T01:54:44.644Z,4.05
2022-10-31T01:57:13.785Z,6.07
2022-10-31T01:59:45.336Z,6.82
2022-10-31T02:02:14.303Z,9.02
2022-10-31T02:04:41.684Z,7.80
2022-10-31T02:07:22.192Z,6.78
2022-10-31T02:09:50.611Z,8.95
2022-10-31T02:12:18.593Z,7.38
2022-10-31T02:14:45.377Z,9.38
2022-10-31T02:17:11.945Z,6.65
2022-10-31T02:20:25.019Z,6.55
2022-10-31T02:23:09.798Z,5.95
2022-10-31T02:25:47.974Z,5.38
2022-10-31T02:28:34.988Z,6.82
2022-10-31T02:31:05.909Z,7.03
2022-10-31T02:33:46.262Z,8.18
2022-10-31T02:36:35.637Z,6.38
2022-10-31T02:39:13.787Z,5.20
2022-10-31T02:42:09.512Z,7.07
2022-10-31T02:44:50.271Z,9.88
2022-10-31T02:47:19.911Z,7.47
2022-10-31T02:49:55.978Z,6.38
2022-10-31T02:52:26.444Z,9.63
2022-10-31T02:54:53.395Z,5.65
2022-10-31T02:57:28.710Z,6.43
2022-10-31T03:00:00.880Z,9.77
2022-10-31T03:02:58.968Z,10.63
2022-10-31T03:06:04.290Z,9.45
2022-10-31T03:08:36.859Z,6.85
2022-10-31T03:11:07.369Z,7.15
2022-10-31T03:13:53.030Z,7.50
2022-10-31T03:16:29.929Z,7.90
2022-10-31T03:18:59.740Z,9.63
2022-10-31T03:21:34.724Z,8.68
2022-10-31T03:24:03.153Z,10.02
2022-10-31T03:26:30.651Z,7.95
2022-10-31T03:29:07.564Z,7.57
2022-10-31T03:31:46.005Z,12.38
2022-10-31T03:34:15.101Z,8.18
2022-10-31T03:36:43.511Z,12.00
2022-10-31T03:39:16.580Z,7.68
2022-10-31T03:41:49.168Z,7.53
2022-10-31T03:44:20.129Z,7.38
2022-10-31T03:46:54.282Z,9.95
2022-10-31T03:49:22.484Z,7.65
2022-10-31T03:52:26.621Z,6.65
2022-10-31T03:55:01.036Z,9.13
2022-10-31T03:57:45.111Z,8.40
2022-10-31T04:00:14.679Z,9.55
2022-10-31T04:02:53.470Z,9.38
2022-10-31T04:05:21.529Z,9.00
2022-10-31T04:07:54.204Z,8.40
2022-10-31T04:10:24.172Z,8.73
2022-10-31T04:13:01.540Z,9.10
2022-10-31T04:15:35.972Z,8.90
2022-10-31T04:18:06.019Z,9.07
2022-10-31T04:20:35.146Z,6.70
2022-10-31T04:23:03.208Z,9.65
2022-10-31T04:25:31.101Z,7.15
2022-10-31T04:27:59.838Z,7.93
2022-10-31T04:30:26.649Z,6.07
2022-10-31T04:32:55.597Z,7.90
2022-10-31T04:35:23.534Z,9.43
2022-10-31T04:37:50.416Z,6.55
2022-10-31T04:40:17.336Z,8.73
2022-10-31T04:42:46.893Z,7.65
2022-10-31T04:45:16.849Z,8.18
2022-10-31T04:47:48.471Z,10.38
2022-10-31T04:50:15.307Z,8.43
2022-10-31T04:52:44.943Z,6.93
2022-10-31T04:55:14.423Z,6.38
2022-10-31T04:58:00.428Z,8.50
2022-10-31T05:00:27.630Z,9.85
2022-10-31T05:02:57.864Z,7.93
2022-10-31T05:05:30.001Z,9.33
2022-10-31T05:07:58.167Z,10.67
2022-10-31T05:10:28.495Z,8.67
2022-10-31T05:13:01.375Z,7.73
2022-10-31T05:15:29.301Z,7.93
2022-10-31T05:18:14.521Z,10.57
2022-10-31T05:20:59.343Z,6.40
2022-10-31T05:23:36.425Z,6.00
2022-10-31T05:26:05.437Z,8.40
2022-10-31T05:28:33.444Z,9.13
2022-10-31T05:31:00.174Z,8.30
2022-10-31T05:33:26.695Z,7.27
2022-10-31T05:36:12.265Z,6.30
2022-10-31T05:38:57.332Z,10.90
2022-10-31T05:41:25.907Z,10.53
2022-10-31T05:43:59.766Z,6.03
2022-10-31T05:46:29.095Z,7.07
2022-10-31T05:49:34.244Z,8.10
2022-10-31T05:52:19.512Z,6.00
2022-10-31T05:54:53.701Z,4.93
2022-10-31T05:57:20.391Z,5.23
2022-10-31T05:59:50.970Z,5.47
2022-10-31T06:02:21.552Z,8.07
2022-10-31T06:05:06.694Z,6.67
2022-10-31T06:07:34.711Z,7.67
2022-10-31T06:10:02.128Z,7.97
2022-10-31T06:12:30.751Z,8.80
2022-10-31T06:15:23.529Z,5.93
2022-10-31T06:18:07.098Z,8.33
2022-10-31T06:20:37.303Z,6.57
2022-10-31T06:23:05.604Z,5.83
2022-10-31T06:25:33.649Z,5.80
2022-10-31T06:28:00.455Z,7.00
2022-10-31T06:30:39.403Z,10.27
2022-10-31T06:33:06.493Z,6.10
2022-10-31T06:35:36.179Z,7.17
2022-10-31T06:38:03.158Z,9.77
2022-10-31T06:40:44.454Z,6.10
2022-10-31T06:43:34.514Z,6.83
2022-10-31T06:46:24.157Z,7.93
2022-10-31T06:49:10.402Z,7.10
2022-10-31T06:51:43.247Z,7.23
2022-10-31T06:54:09.945Z,4.97
2022-10-31T06:56:36.807Z,8.73
2022-10-31T06:59:04.107Z,5.70
2022-10-31T07:01:53.830Z,7.60
2022-10-31T07:04:20.600Z,7.43
2022-10-31T07:06:51.744Z,7.93
2022-10-31T07:09:19.267Z,9.10
2022-10-31T07:11:46.035Z,7.63
2022-10-31T07:14:13.164Z,7.13
2022-10-31T07:16:39.668Z,7.00
2022-10-31T07:19:06.988Z,9.23
2022-10-31T07:21:33.915Z,7.73
2022-10-31T07:24:01.696Z,6.33
2022-10-31T07:26:57.221Z,7.95
2022-10-31T07:29:24.679Z,9.07
2022-10-31T07:31:51.398Z,6.83
2022-10-31T07:34:24.789Z,8.20
2022-10-31T07:37:20.740Z,8.90
2022-10-31T07:39:48.431Z,7.87
2022-10-31T07:42:14.976Z,11.00
2022-10-31T07:44:44.657Z,7.47
2022-10-31T07:47:29.902Z,7.60
2022-10-31T07:50:17.829Z,11.30
2022-10-31T07:53:19.534Z,8.38
2022-10-31T07:56:09.207Z,10.50
2022-10-31T07:58:35.929Z,11.15
2022-10-31T08:01:02.600Z,10.57
2022-10-31T08:03:38.958Z,11.13
2022-10-31T08:06:23.773Z,11.13
2022-10-31T08:09:08.452Z,9.18
2022-10-31T08:11:35.293Z,12.77
2022-10-31T08:14:12.498Z,10.65
2022-10-31T08:16:42.935Z,9.77
2022-10-31T08:19:10.634Z,7.55
2022-10-31T08:21:39.022Z,10.02
2022-10-31T08:24:08.424Z,7.97
2022-10-31T08:26:44.776Z,8.75
2022-10-31T08:29:15.805Z,8.85
2022-10-31T08:35:02.077Z,12.25
2022-10-31T08:37:57.841Z,8.98
2022-10-31T08:40:29.941Z,9.52
2022-10-31T08:42:59.299Z,7.95
2022-10-31T08:45:26.881Z,9.73
2022-10-31T08:47:57.262Z,7.28
2022-10-31T08:50:24.168Z,10.15
2022-10-31T08:53:04.617Z,7.35
2022-10-31T08:55:37.753Z,8.80
2022-10-31T08:58:11.212Z,9.02
2022-10-31T09:00:44.556Z,8.57
2022-10-31T09:03:18.439Z,13.05
2022-10-31T09:05:45.888Z,9.07
2022-10-31T09:08:16.571Z,9.65
2022-10-31T09:10:46.992Z,9.07
2022-10-31T09:13:19.646Z,9.82
2022-10-31T09:16:05.611Z,8.55
2022-10-31T09:18:34.730Z,10.82
2022-10-31T09:21:01.801Z,9.02
2022-10-31T09:23:30.865Z,8.70
2022-10-31T09:26:01.027Z,9.55
2022-10-31T09:29:03.419Z,8.98
2022-10-31T09:31:44.785Z,11.18
2022-10-31T09:34:38.530Z,8.80
2022-10-31T09:37:10.092Z,10.07
2022-10-31T09:39:37.367Z,10.02
2022-10-31T09:42:39.977Z,12.52
2022-10-31T09:45:37.279Z,7.55
2022-10-31T09:48:21.854Z,8.75
2022-10-31T09:51:47.995Z,7.78
2022-10-31T09:54:52.840Z,11.60
2022-10-31T09:57:35.025Z,9.90
2022-10-31T10:00:06.572Z,9.00
2022-10-31T10:03:48.451Z,13.38
2022-10-31T10:06:48.102Z,15.38
2022-10-31T10:09:33.609Z,12.30
2022-10-31T10:13:02.358Z,11.88
2022-10-31T10:15:58.060Z,12.00
2022-10-31T10:18:57.682Z,12.77
2022-10-31T10:21:36.449Z,12.30
2022-10-31T10:24:28.384Z,12.52
2022-10-31T10:27:23.504Z,10.90
2022-10-31T10:30:13.220Z,9.60
2022-10-31T10:33:01.707Z,10.30
2022-10-31T10:35:32.572Z,13.18
2022-10-31T10:38:12.284Z,10.45
2022-10-31T10:40:42.538Z,11.75
2022-10-31T10:43:21.729Z,13.57
2022-10-31T10:46:10.833Z,11.23
2022-10-31T10:48:57.443Z,14.27
2022-10-31T10:55:01.149Z,14.27
2022-10-31T10:57:31.076Z,12.65
2022-10-31T11:00:01.209Z,12.30
2022-10-31T11:02:33.672Z,12.38
2022-10-31T11:05:02.573Z,9.43
2022-10-31T11:07:55.413Z,13.13
2022-10-31T11:10:26.970Z,9.15
2022-10-31T11:13:24.589Z,12.70
2022-10-31T11:16:11.507Z,10.73
2022-10-31T11:18:47.233Z,10.90
2022-10-31T11:21:39.236Z,10.13
2022-10-31T11:24:34.402Z,12.25
2022-10-31T11:27:21.064Z,12.27
2022-10-31T11:30:06.673Z,10.05
2022-10-31T11:32:35.221Z,11.73
2022-10-31T11:35:07.499Z,8.82
2022-10-31T11:37:41.006Z,12.25
2022-10-31T11:40:16.480Z,10.23
2022-10-31T11:42:43.949Z,13.60
2022-10-31T11:45:22.313Z,13.18
2022-10-31T11:47:59.214Z,11.05
2022-10-31T11:50:36.380Z,11.10
2022-10-31T11:53:04.224Z,11.63
2022-10-31T11:55:36.895Z,9.80
2022-10-31T11:58:04.483Z,13.60
2022-10-31T12:00:38.915Z,10.30
2022-10-31T12:03:41.696Z,8.50
2022-10-31T12:06:26.086Z,7.18
2022-10-31T12:08:52.677Z,12.45
2022-10-31T12:11:31.092Z,12.30
2022-10-31T12:14:38.877Z,12.05
2022-10-31T12:17:20.711Z,9.75
2022-10-31T12:19:53.862Z,9.13
2022-10-31T12:22:46.784Z,11.75
2022-10-31T12:25:22.673Z,9.68
2022-10-31T12:28:01.920Z,11.27
2022-10-31T12:30:42.002Z,9.43
2022-10-31T12:33:38.644Z,10.73
2022-10-31T12:36:41.729Z,12.52
2022-10-31T12:39:26.593Z,10.25
2022-10-31T12:42:29.731Z,12.88
2022-10-31T12:45:23.519Z,9.73
2022-10-31T12:48:08.615Z,10.50
2022-10-31T12:50:51.562Z,9.85
2022-10-31T12:53:37.174Z,12.27
2022-10-31T12:56:11.460Z,8.93
2022-10-31T12:58:44.654Z,9.88
2022-10-31T13:01:24.197Z,10.57
2022-10-31T13:04:04.266Z,14.35
2022-10-31T13:06:45.070Z,12.75
2022-10-31T13:09:20.596Z,10.93
2022-10-31T13:11:58.028Z,11.48
2022-10-31T13:14:30.814Z,11.18
2022-10-31T13:16:58.246Z,9.05
2022-10-31T13:19:31.237Z,8.07
2022-10-31T13:22:09.698Z,9.27
2022-10-31T13:24:36.201Z,10.48
2022-10-31T13:27:13.953Z,10.55
2022-10-31T13:30:13.259Z,9.23
2022-10-31T13:32:55.068Z,12.77
2022-10-31T13:36:07.796Z,11.00
2022-10-31T13:38:37.491Z,11.93
2022-10-31T13:41:15.764Z,13.55
2022-10-31T13:44:03.586Z,11.07
2022-10-31T13:49:31.328Z,9.85
2022-10-31T13:52:09.962Z,9.50
2022-10-31T13:54:39.756Z,10.52
2022-10-31T13:57:36.237Z,10.32
2022-10-31T14:00:24.889Z,9.38
2022-10-31T14:02:54.478Z,9.20
2022-10-31T14:05:27.527Z,9.43
2022-10-31T14:07:57.240Z,9.82
2022-10-31T14:10:30.183Z,6.80
2022-10-31T14:13:21.997Z,12.27
2022-10-31T14:16:01.694Z,10.00
2022-10-31T14:18:34.460Z,9.80
2022-10-31T14:21:01.238Z,14.15
2022-10-31T14:23:33.522Z,9.05
2022-10-31T14:26:20.891Z,12.43
2022-10-31T14:28:49.940Z,12.40
2022-10-31T14:31:44.465Z,10.77
2022-10-31T14:34:20.449Z,11.00
2022-10-31T14:37:08.298Z,9.35
2022-10-31T14:40:00.642Z,8.20
2022-10-31T14:42:27.245Z,11.20
2022-10-31T14:45:14.965Z,10.73
2022-10-31T14:48:05.245Z,12.30
2022-10-31T14:50:47.461Z,8.77
2022-10-31T14:53:21.829Z,10.05
2022-10-31T14:55:51.155Z,10.10
2022-10-31T14:58:24.592Z,8.57
2022-10-31T15:00:56.912Z,9.30
2022-10-31T15:03:34.365Z,10.07
2022-10-31T15:06:06.994Z,10.25
2022-10-31T15:08:44.577Z,6.07
2022-10-31T15:11:25.577Z,10.07
2022-10-31T15:13:57.610Z,8.13
2022-10-31T15:19:07.373Z,9.98
2022-10-31T15:21:35.269Z,9.85
2022-10-31T15:24:03.442Z,9.90
2022-10-31T15:26:39.253Z,10.52
2022-10-31T15:29:12.321Z,8.82
2022-10-31T15:31:38.925Z,13.80
2022-10-31T15:34:23.102Z,13.07
2022-10-31T15:36:50.351Z,61.10
2022-10-31T15:39:17.666Z,15.20
2022-10-31T15:41:56.047Z,7.88
2022-10-31T15:44:35.286Z,8.23
2022-10-31T15:47:07.171Z,9.50
2022-10-31T15:49:33.703Z,8.68
2022-10-31T15:52:11.200Z,10.60
2022-10-31T15:54:52.653Z,9.18
2022-10-31T15:57:19.389Z,7.72
2022-10-31T15:59:49.731Z,7.85
2022-10-31T16:02:21.099Z,11.60
2022-10-31T16:04:54.397Z,13.50
2022-10-31T16:07:23.550Z,9.43
2022-10-31T16:09:54.519Z,9.57
2022-10-31T16:12:23.286Z,8.85
2022-10-31T16:14:52.645Z,7.28
2022-10-31T16:17:22.495Z,15.18
2022-10-31T16:20:14.025Z,10.52
2022-10-31T16:22:40.823Z,8.93
2022-10-31T16:25:16.676Z,10.48
2022-10-31T16:27:54.240Z,10.93
2022-10-31T16:30:29.439Z,11.23
2022-10-31T16:33:01.217Z,12.07
2022-10-31T16:35:38.161Z,15.85
2022-10-31T16:38:05.955Z,12.55
2022-10-31T16:40:33.159Z,13.57
2022-10-31T16:43:01.928Z,11.70
2022-10-31T16:45:32.714Z,12.43
2022-10-31T16:48:07.458Z,10.73
2022-10-31T16:50:34.340Z,11.38
2022-10-31T16:53:13.333Z,14.60
2022-10-31T16:55:51.620Z,12.93
2022-10-31T16:58:30.085Z,12.40
2022-10-31T17:00:59.302Z,11.10
2022-10-31T17:03:26.161Z,12.85
2022-10-31T17:05:52.945Z,12.70
2022-10-31T17:08:19.637Z,14.63
2022-10-31T17:10:48.302Z,11.95
2022-10-31T17:13:19.684Z,11.68
2022-10-31T17:15:50.446Z,13.48
2022-10-31T17:18:20.555Z,15.50
2022-10-31T17:20:55.571Z,15.15
2022-10-31T17:23:22.264Z,16.50
2022-10-31T17:25:48.745Z,14.98
2022-10-31T17:28:15.739Z,12.98
2022-10-31T17:30:43.536Z,15.13
2022-10-31T17:33:14.125Z,16.92
2022-10-31T17:35:42.246Z,18.95
2022-10-31T17:38:08.803Z,18.02
2022-10-31T17:40:38.527Z,19.45
2022-10-31T17:43:05.816Z,16.88
2022-10-31T17:45:32.786Z,19.80
2022-10-31T17:47:59.281Z,19.25
2022-10-31T17:50:27.242Z,18.90
2022-10-31T17:52:53.760Z,17.77
2022-10-31T17:55:20.577Z,18.95
2022-10-31T17:57:47.119Z,17.00
2022-10-31T18:00:19.731Z,17.77
2022-10-31T18:02:46.920Z,19.23
2022-10-31T18:05:13.714Z,17.55
2022-10-31T18:07:40.348Z,16.88
2022-10-31T18:10:07.668Z,19.35
2022-10-31T18:12:36.442Z,16.10
2022-10-31T18:15:03.481Z,18.20
2022-10-31T18:17:30.350Z,18.00
2022-10-31T18:19:56.914Z,16.95
2022-10-31T18:22:23.652Z,18.67
2022-10-31T18:24:50.168Z,16.30
2022-10-31T18:27:16.877Z,18.33
2022-10-31T18:29:43.398Z,17.45
2022-10-31T18:32:09.973Z,20.30
2022-10-31T18:34:36.870Z,20.85
2022-10-31T18:37:03.513Z,23.25
2022-10-31T18:39:30.091Z,19.85
2022-10-31T18:41:56.949Z,20.48
2022-10-31T18:44:23.476Z,16.27
2022-10-31T18:46:50.078Z,18.52
2022-10-31T18:49:16.704Z,19.70
2022-10-31T18:51:43.243Z,21.05
2022-10-31T18:54:09.745Z,19.75
2022-10-31T18:56:36.379Z,21.95
2022-10-31T18:59:02.873Z,17.88
2022-10-31T19:01:30.057Z,18.95
2022-10-31T19:03:58.010Z,25.10
2022-10-31T19:06:26.032Z,27.52
2022-10-31T19:09:00.456Z,29.45
2022-10-31T19:11:27.654Z,31.52
2022-10-31T19:13:54.439Z,27.65
2022-10-31T19:16:21.237Z,24.33
2022-10-31T19:18:47.739Z,26.58
2022-10-31T19:21:16.617Z,31.50
2022-10-31T19:23:44.925Z,24.02
2022-10-31T19:26:12.321Z,29.65
2022-10-31T19:28:40.612Z,24.27
2022-10-31T19:31:08.536Z,25.05
2022-10-31T19:33:36.140Z,33.10
2022-10-31T19:36:07.264Z,32.15
2022-10-31T19:38:35.091Z,30.15
2022-10-31T19:41:05.162Z,33.72
2022-10-31T19:43:32.170Z,31.73
2022-10-31T19:46:00.944Z,34.13
2022-10-31T19:48:28.117Z,38.28
2022-10-31T19:51:01.031Z,40.83
2022-10-31T19:53:29.727Z,38.65
2022-10-31T19:55:56.785Z,40.13
2022-10-31T19:58:24.013Z,38.88
2022-10-31T20:00:50.842Z,37.25
2022-10-31T20:03:19.932Z,44.70
2022-10-31T20:05:49.222Z,37.03
2022-10-31T20:08:18.282Z,39.13
2022-10-31T20:10:58.659Z,36.60
2022-10-31T20:13:25.975Z,35.47
2022-10-31T20:15:52.729Z,33.90
2022-10-31T20:18:19.398Z,36.70
2022-10-31T20:20:46.406Z,32.58
2022-10-31T20:23:12.977Z,41.63
2022-10-31T20:25:47.255Z,35.63
2022-10-31T20:28:17.266Z,40.75
2022-10-31T20:30:44.381Z,43.30
2022-10-31T20:33:11.398Z,43.20
2022-10-31T20:35:40.839Z,41.92
2022-10-31T20:38:08.468Z,41.45
2022-10-31T20:40:35.597Z,43.10
2022-10-31T20:43:03.940Z,40.60
2022-10-31T20:45:31.228Z,44.53
2022-10-31T20:47:58.763Z,43.35
2022-10-31T20:50:26.136Z,39.55
2022-10-31T20:52:52.959Z,45.50
2022-10-31T20:55:19.933Z,43.45
2022-10-31T20:57:46.816Z,44.53
2022-10-31T21:00:14.028Z,39.45
2022-10-31T21:02:41.795Z,37.53
2022-10-31T21:05:12.306Z,42.38
2022-10-31T21:07:40.101Z,36.13
2022-10-31T21:10:07.770Z,40.13
2022-10-31T21:12:34.357Z,37.42
2022-10-31T21:15:00.961Z,36.45
2022-10-31T21:17:28.281Z,39.35
2022-10-31T21:19:54.845Z,36.03
2022-10-31T21:22:22.799Z,41.38
2022-10-31T21:24:49.510Z,37.25
2022-10-31T21:27:16.091Z,41.58
2022-10-31T21:29:42.617Z,39.75
2022-10-31T21:32:09.281Z,39.35
2022-10-31T21:34:35.779Z,40.70
2022-10-31T21:37:02.392Z,37.95
2022-10-31T21:39:28.899Z,37.47
2022-10-31T21:41:55.461Z,36.20
2022-10-31T21:44:21.945Z,39.45
2022-10-31T21:46:48.619Z,37.55
2022-10-31T21:49:15.122Z,37.50
2022-10-31T21:51:41.683Z,39.55
2022-10-31T21:54:12.302Z,39.53
2022-10-31T21:56:39.377Z,33.15
2022-10-31T21:59:06.518Z,33.78
2022-10-31T22:01:34.780Z,35.08
2022-10-31T22:04:02.190Z,36.38
2022-10-31T22:06:29.125Z,36.55
2022-10-31T22:08:57.495Z,30.10
2022-10-31T22:11:24.158Z,33.60
2022-10-31T22:13:50.836Z,33.55
2022-10-31T22:16:19.784Z,30.42
2022-10-31T22:18:47.416Z,29.42
2022-10-31T22:21:20.059Z,31.63
2022-10-31T22:23:55.011Z,35.08
2022-10-31T22:26:22.024Z,27.27
2022-10-31T22:28:51.705Z,28.02
2022-10-31T22:31:20.728Z,24.98
2022-10-31T22:33:47.955Z,25.00
2022-10-31T22:36:17.144Z,34.63
2022-10-31T22:38:44.924Z,28.10
2022-10-31T22:41:14.040Z,31.27
2022-10-31T22:43:41.029Z,28.00
2022-10-31T22:46:10.309Z,28.85
2022-10-31T22:48:40.310Z,28.30
2022-10-31T22:51:08.894Z,26.52
2022-10-31T22:53:37.177Z,30.20
2022-10-31T22:56:05.348Z,36.45
2022-10-31T22:58:33.185Z,37.25
2022-10-31T23:01:00.650Z,39.33
2022-10-31T23:03:27.439Z,46.35
2022-10-31T23:06:01.563Z,37.83
2022-10-31T23:08:29.633Z,36.67
2022-10-31T23:10:56.368Z,37.42
2022-10-31T23:13:23.307Z,37.22
2022-10-31T23:15:49.797Z,33.03
2022-10-31T23:18:36.663Z,33.65
2022-10-31T23:21:05.465Z,37.83
2022-10-31T23:23:36.889Z,37.45
2022-10-31T23:26:04.593Z,34.78
2022-10-31T23:28:32.053Z,29.83
2022-10-31T23:30:58.681Z,27.50
2022-10-31T23:33:30.549Z,27.48
2022-10-31T23:35:58.010Z,26.13
2022-10-31T23:38:24.541Z,32.22
2022-10-31T23:40:51.084Z,25.40
2022-10-31T23:43:17.695Z,27.35
2022-10-31T23:45:44.616Z,25.85
2022-10-31T23:48:11.131Z,17.20
2022-10-31T23:50:38.143Z,12.27
2022-10-31T23:53:04.944Z,18.08
2022-10-31T23:55:31.646Z,14.65
2022-10-31T23:57:58.168Z,14.60
